Time;durP1;ratioP1;P1;durP2;ratioP2;P2;SDS_P1;SDS_P2;PMS_P1;PMS_P2;Temp;Humidity;BMP_temperature;BMP_pressure;BME280_temperature;BME280_humidity;BME280_pressure;Samples;Min_cycle;Max_cycle;Signal;HPM_P1;HPM_P2
2023/01/10 00:00:34;;;;;;;6.00;5.05;;;;;;;1.35;100.00;96100.28;5086083;28;20037;-69
2023/01/10 00:03:00;;;;;;;7.78;5.28;;;;;;;1.31;100.00;96107.34;5087910;28;20036;-69
2023/01/10 00:05:25;;;;;;;10.23;7.47;;;;;;;1.28;100.00;96105.72;5077205;28;20035;-69
2023/01/10 00:07:51;;;;;;;7.80;6.70;;;;;;;1.27;100.00;96104.06;5091230;28;20114;-69
2023/01/10 00:10:16;;;;;;;11.02;6.72;;;;;;;1.32;100.00;96127.19;5087742;28;20115;-69
2023/01/10 00:15:25;;;;;;;8.90;5.78;;;;;;;1.35;100.00;96142.59;5087559;28;20093;-63
2023/01/10 00:17:51;;;;;;;8.13;5.00;;;;;;;1.31;100.00;96142.81;5089859;28;20455;-62
2023/01/10 00:20:17;;;;;;;6.53;5.32;;;;;;;1.31;100.00;96148.00;5088012;28;20093;-62
2023/01/10 00:22:43;;;;;;;8.05;5.40;;;;;;;1.33;100.00;96161.78;5084488;28;20035;-62
2023/01/10 00:25:09;;;;;;;7.28;4.97;;;;;;;1.32;100.00;96158.31;5088356;28;20047;-62
2023/01/10 00:27:34;;;;;;;6.35;4.88;;;;;;;1.32;100.00;96152.28;5086657;28;20032;-62
2023/01/10 00:30:05;;;;;;;5.90;5.35;;;;;;;1.33;100.00;96165.19;5085867;28;20142;-63
2023/01/10 00:32:31;;;;;;;9.70;5.28;;;;;;;1.36;100.00;96165.03;5086155;28;20035;-62
2023/01/10 00:34:56;;;;;;;6.60;5.43;;;;;;;1.34;100.00;96160.84;5088153;28;20134;-64
2023/01/10 00:37:22;;;;;;;10.00;7.88;;;;;;;1.35;100.00;96158.16;5088234;28;20076;-62
2023/01/10 00:39:47;;;;;;;7.07;6.38;;;;;;;1.38;100.00;96162.38;5083668;28;20458;-62
2023/01/10 00:44:56;;;;;;;6.80;5.55;;;;;;;1.36;100.00;96166.81;5088623;28;20044;-61
2023/01/10 00:47:22;;;;;;;8.27;5.47;;;;;;;1.30;100.00;96154.97;5084273;28;20454;-61
2023/01/10 00:49:47;;;;;;;13.52;5.53;;;;;;;1.28;100.00;96177.56;5083927;28;20028;-62
2023/01/10 00:52:12;;;;;;;8.23;5.68;;;;;;;1.29;100.00;96177.47;5086045;28;20020;-62
2023/01/10 00:54:38;;;;;;;10.60;6.72;;;;;;;1.34;100.00;96177.25;5086940;28;20116;-62
2023/01/10 00:57:03;;;;;;;7.60;6.20;;;;;;;1.38;100.00;96185.75;5090132;28;20031;-62
2023/01/10 00:59:29;;;;;;;5.20;4.70;;;;;;;1.38;100.00;96183.97;5087040;28;20051;-62
2023/01/10 01:01:54;;;;;;;5.22;4.05;;;;;;;1.39;100.00;96179.63;5081328;28;20025;-61
2023/01/10 01:04:20;;;;;;;6.82;5.32;;;;;;;1.41;100.00;96191.59;5084414;28;20052;-62
2023/01/10 01:06:46;;;;;;;6.35;5.32;;;;;;;1.45;100.00;96188.88;5088472;28;20036;-62
2023/01/10 01:09:12;;;;;;;5.20;4.65;;;;;;;1.46;100.00;96193.97;5086976;28;20042;-62
2023/01/10 01:11:38;;;;;;;6.07;4.57;;;;;;;1.51;100.00;96207.56;5087775;28;20032;-62
2023/01/10 01:14:03;;;;;;;5.30;4.57;;;;;;;1.51;100.00;96209.34;5090088;28;20106;-64
2023/01/10 01:16:29;;;;;;;5.50;4.50;;;;;;;1.51;100.00;96225.75;5087073;28;20039;-64
2023/01/10 01:18:54;;;;;;;6.88;3.70;;;;;;;1.68;100.00;96245.72;5084880;28;20028;-63
2023/01/10 01:21:20;;;;;;;5.93;3.15;;;;;;;1.65;100.00;96253.63;5084737;28;20111;-63
2023/01/10 01:23:45;;;;;;;30.05;14.07;;;;;;;1.62;100.00;96250.34;5082030;28;20570;-64
2023/01/10 01:26:10;;;;;;;18.38;9.27;;;;;;;1.55;100.00;96252.41;5087821;28;20074;-63
2023/01/10 01:28:36;;;;;;;11.52;6.28;;;;;;;1.55;100.00;96253.25;5084263;28;20486;-63
2023/01/10 01:31:09;;;;;;;5.20;3.50;;;;;;;1.63;100.00;96254.63;5083034;28;20107;-65
2023/01/10 01:33:35;;;;;;;6.78;4.18;;;;;;;1.55;100.00;96255.84;5085988;28;20056;-61
2023/01/10 01:36:00;;;;;;;9.23;5.60;;;;;;;1.49;100.00;96257.88;5087773;28;20506;-61
2023/01/10 01:38:26;;;;;;;12.13;7.00;;;;;;;1.48;100.00;96262.22;5088313;28;20044;-61
2023/01/10 01:40:51;;;;;;;21.25;12.75;;;;;;;1.45;100.00;96277.13;5087159;28;20051;-62
2023/01/10 01:43:24;;;;;;;10.48;7.10;;;;;;;1.43;100.00;96275.41;5087302;28;20036;-62
2023/01/10 01:45:50;;;;;;;17.10;10.52;;;;;;;1.44;100.00;96273.66;5087945;28;20406;-61
2023/01/10 01:48:26;;;;;;;22.80;17.65;;;;;;;1.46;100.00;96273.59;5084886;28;20604;-61
2023/01/10 01:51:06;;;;;;;10.90;7.25;;;;;;;1.59;100.00;96273.88;5086903;28;20028;-64
2023/01/10 01:53:48;;;;;;;4.63;3.47;;;;;;;1.45;100.00;96287.50;5083797;28;20067;-70
2023/01/10 01:56:22;;;;;;;5.70;4.07;;;;;;;1.45;100.00;96300.47;5083502;28;20067;-70
2023/01/10 01:59:00;;;;;;;6.15;4.20;;;;;;;1.41;100.00;96291.97;5084870;28;20063;-69
2023/01/10 02:01:27;;;;;;;4.60;3.22;;;;;;;1.38;100.00;96292.94;5084996;28;20111;-70
2023/01/10 02:03:58;;;;;;;8.70;3.63;;;;;;;1.43;100.00;96290.16;5084926;28;20078;-70
2023/01/10 02:06:24;;;;;;;6.47;3.65;;;;;;;1.46;100.00;96294.38;5085987;28;20529;-70
2023/01/10 02:09:02;;;;;;;3.83;3.17;;;;;;;1.43;100.00;96296.16;5088036;28;20028;-70
2023/01/10 02:11:28;;;;;;;4.45;3.08;;;;;;;1.43;100.00;96298.75;5085990;28;20032;-61
2023/01/10 02:13:54;;;;;;;6.47;2.92;;;;;;;1.45;100.00;96306.47;5084397;28;20032;-70
2023/01/10 02:16:20;;;;;;;4.45;2.75;;;;;;;1.43;100.00;96306.53;5085606;28;20056;-70
2023/01/10 02:18:46;;;;;;;7.55;3.13;;;;;;;1.45;100.00;96313.44;5085144;28;20081;-70
2023/01/10 02:21:35;;;;;;;5.72;2.80;;;;;;;1.49;100.00;96317.56;5086378;28;20028;-70
2023/01/10 02:24:54;;;;;;;7.40;2.72;;;;;;;1.43;100.00;96327.31;5078856;28;20138;-70
2023/01/10 02:27:25;;;;;;;4.22;2.72;;;;;;;1.47;100.00;96333.19;5047178;28;20087;-69
2023/01/10 02:30:09;;;;;;;4.75;2.92;;;;;;;1.41;100.00;96339.50;5082076;28;20139;-69
2023/01/10 02:32:37;;;;;;;5.43;4.15;;;;;;;1.37;100.00;96337.97;5087242;28;20024;-64
2023/01/10 02:35:18;;;;;;;7.15;3.15;;;;;;;1.36;100.00;96351.84;5083937;28;20061;-64
2023/01/10 02:37:49;;;;;;;4.93;3.03;;;;;;;1.11;100.00;96339.16;5087501;28;20040;-64
2023/01/10 02:41:00;;;;;;;3.80;2.65;;;;;;;1.20;100.00;96346.50;5083938;28;20031;-65
2023/01/10 02:43:34;;;;;;;5.13;2.40;;;;;;;0.97;100.00;96361.34;5028845;28;20044;-64
2023/01/10 02:46:16;;;;;;;5.35;2.80;;;;;;;0.76;100.00;96352.72;5082668;28;20032;-64
2023/01/10 02:48:41;;;;;;;10.05;3.70;;;;;;;0.63;100.00;96351.56;5087380;28;20062;-63
2023/01/10 02:51:12;;;;;;;6.15;2.85;;;;;;;0.61;100.00;96361.16;5084599;28;20478;-70
2023/01/10 02:53:47;;;;;;;4.30;2.63;;;;;;;0.69;100.00;96359.06;5084744;28;20037;-64
2023/01/10 02:56:12;;;;;;;5.45;2.40;;;;;;;0.74;100.00;96346.75;5087976;28;20025;-64
2023/01/10 02:58:37;;;;;;;4.40;2.55;;;;;;;0.81;100.00;96357.72;5084493;28;20047;-64
2023/01/10 03:01:18;;;;;;;8.23;3.00;;;;;;;0.79;100.00;96344.84;5084876;28;20040;-64
2023/01/10 03:03:51;;;;;;;4.80;2.92;;;;;;;0.74;100.00;96336.38;5085122;28;20036;-64
2023/01/10 03:06:29;;;;;;;2.92;2.47;;;;;;;0.77;100.00;96344.03;5083471;28;20412;-64
2023/01/10 03:09:06;;;;;;;7.10;2.45;;;;;;;0.82;100.00;96349.03;5077565;28;20075;-63
2023/01/10 03:11:43;;;;;;;7.72;3.10;;;;;;;0.78;100.00;96345.75;5086115;28;20525;-69
2023/01/10 03:14:17;;;;;;;6.40;2.65;;;;;;;0.79;100.00;96359.53;5087819;28;20567;-69
2023/01/10 03:16:48;;;;;;;5.18;3.05;;;;;;;0.82;100.00;96367.16;5086589;28;20413;-69
2023/01/10 03:19:18;;;;;;;8.15;2.58;;;;;;;0.78;100.00;96356.09;5081060;28;20028;-69
2023/01/10 03:21:46;;;;;;;4.38;2.60;;;;;;;0.77;100.00;96358.75;5083512;28;20035;-69
2023/01/10 03:24:17;;;;;;;6.35;2.42;;;;;;;0.74;100.00;96357.13;5084763;28;20032;-69
2023/01/10 03:26:54;;;;;;;2.78;2.20;;;;;;;0.80;100.00;96374.16;5084073;28;20031;-70
2023/01/10 03:29:37;;;;;;;5.05;2.40;;;;;;;0.93;100.00;96379.69;5082013;28;20035;-63
2023/01/10 03:32:08;;;;;;;4.22;2.40;;;;;;;0.91;100.00;96395.31;5082430;28;20017;-63
2023/01/10 03:34:34;;;;;;;3.75;2.40;;;;;;;0.89;100.00;96410.09;5081705;28;20498;-63
2023/01/10 03:37:05;;;;;;;2.28;2.00;;;;;;;0.91;100.00;96417.78;5087991;28;20043;-63
2023/01/10 03:39:41;;;;;;;5.32;2.40;;;;;;;0.97;100.00;96409.75;5085918;28;20050;-63
2023/01/10 03:42:26;;;;;;;4.32;2.40;;;;;;;0.94;100.00;96399.50;5085513;28;20032;-63
2023/01/10 03:45:07;;;;;;;5.75;2.45;;;;;;;0.97;100.00;96418.38;5087056;28;20122;-62
2023/01/10 03:47:48;;;;;;;3.00;2.55;;;;;;;0.99;100.00;96418.31;5088490;28;20574;-64
2023/01/10 03:50:19;;;;;;;3.42;2.60;;;;;;;1.05;100.00;96418.06;5082671;28;20043;-61
2023/01/10 03:52:45;;;;;;;4.63;2.70;;;;;;;0.99;100.00;96423.47;5086074;28;20025;-62
2023/01/10 03:55:13;;;;;;;3.65;2.25;;;;;;;1.00;100.00;96427.78;5084075;28;20036;-62
2023/01/10 03:57:41;;;;;;;6.68;2.88;;;;;;;1.00;100.00;96430.38;5087002;28;20110;-62
2023/01/10 04:00:08;;;;;;;4.72;2.30;;;;;;;1.11;100.00;96429.94;5088347;28;20039;-61
2023/01/10 04:02:34;;;;;;;4.22;2.15;;;;;;;1.22;100.00;96432.06;5087697;28;20020;-62
2023/01/10 04:04:59;;;;;;;4.90;2.38;;;;;;;1.15;100.00;96426.28;5089169;28;20042;-62
2023/01/10 04:07:25;;;;;;;3.80;2.47;;;;;;;1.15;100.00;96418.50;5085835;28;20409;-61
2023/01/10 04:09:51;;;;;;;7.72;3.20;;;;;;;1.15;100.00;96431.47;5088503;28;20032;-65
2023/01/10 04:12:17;;;;;;;8.63;3.70;;;;;;;1.18;100.00;96448.66;5091747;28;20039;-65
2023/01/10 04:14:45;;;;;;;3.28;2.88;;;;;;;1.20;100.00;96445.09;5088563;28;20570;-65
2023/01/10 04:17:11;;;;;;;5.88;2.35;;;;;;;1.19;100.00;96452.94;5089489;28;20031;-64
2023/01/10 04:19:36;;;;;;;3.45;2.47;;;;;;;1.18;100.00;96453.84;5091427;28;20036;-65
2023/01/10 04:22:02;;;;;;;5.78;2.50;;;;;;;1.17;100.00;96450.41;5088889;28;20036;-65
2023/01/10 04:24:27;;;;;;;4.70;3.53;;;;;;;1.17;100.00;96465.97;5086503;28;20046;-65
2023/01/10 04:26:52;;;;;;;7.30;4.78;;;;;;;1.16;100.00;96460.84;5087397;28;20028;-70
2023/01/10 04:29:18;;;;;;;6.93;4.25;;;;;;;1.19;100.00;96461.56;5090788;28;20406;-61
2023/01/10 04:31:43;;;;;;;6.80;4.95;;;;;;;1.26;100.00;96470.75;5081715;28;20517;-61
2023/01/10 04:34:09;;;;;;;4.97;3.20;;;;;;;1.36;100.00;96475.56;5089581;28;20397;-61
2023/01/10 04:36:35;;;;;;;5.97;2.70;;;;;;;1.29;100.00;96465.44;5086911;28;20493;-62
2023/01/10 04:39:01;;;;;;;4.88;2.78;;;;;;;1.26;100.00;96470.75;5090900;28;20040;-61
2023/01/10 04:41:26;;;;;;;4.13;2.50;;;;;;;1.34;100.00;96470.44;5085017;28;20047;-62
2023/01/10 04:43:51;;;;;;;9.30;2.75;;;;;;;1.32;100.00;96479.19;5087517;28;20034;-62
2023/01/10 04:46:17;;;;;;;4.78;2.63;;;;;;;1.31;100.00;96483.53;5089918;28;20066;-62
2023/01/10 04:48:42;;;;;;;6.03;2.50;;;;;;;1.28;100.00;96483.69;5087558;28;20512;-71
2023/01/10 04:51:07;;;;;;;5.63;3.03;;;;;;;1.36;100.00;96478.16;5085125;28;20028;-71
2023/01/10 04:53:33;;;;;;;4.85;2.70;;;;;;;1.38;100.00;96486.72;5089312;28;20400;-71
2023/01/10 04:56:05;;;;;;;4.97;2.60;;;;;;;1.49;100.00;96491.47;5087874;28;20134;-71
2023/01/10 04:58:37;;;;;;;5.38;2.28;;;;;;;1.43;100.00;96497.75;5090065;28;20036;-70
2023/01/10 05:01:08;;;;;;;6.70;2.50;;;;;;;1.46;100.00;96496.78;5084823;28;20034;-71
2023/01/10 05:03:34;;;;;;;8.65;4.20;;;;;;;1.40;100.00;96503.91;5088755;28;20044;-63
2023/01/10 05:05:59;;;;;;;9.95;5.97;;;;;;;1.40;100.00;96503.06;5084076;28;20046;-64
2023/01/10 05:08:25;;;;;;;9.75;5.88;;;;;;;1.41;100.00;96507.34;5088003;28;20040;-64
2023/01/10 05:10:50;;;;;;;7.50;4.07;;;;;;;1.42;100.00;96507.28;5085665;28;20604;-63
2023/01/10 05:13:15;;;;;;;11.77;3.75;;;;;;;1.42;100.00;96506.44;5079246;28;20525;-63
2023/01/10 05:15:41;;;;;;;8.57;3.53;;;;;;;1.41;100.00;96504.75;5081426;28;20120;-63
2023/01/10 05:18:06;;;;;;;7.50;3.08;;;;;;;1.40;100.00;96503.91;5086732;28;20126;-63
2023/01/10 05:20:31;;;;;;;8.75;3.10;;;;;;;1.40;100.00;96503.91;5088266;28;20068;-63
2023/01/10 05:22:57;;;;;;;11.25;6.45;;;;;;;1.45;100.00;96511.50;5084718;28;20059;-62
2023/01/10 05:25:22;;;;;;;9.00;5.57;;;;;;;1.42;100.00;96509.88;5086257;28;20042;-65
2023/01/10 05:27:47;;;;;;;5.70;4.00;;;;;;;1.52;100.00;96512.09;5085404;28;20040;-61
2023/01/10 05:30:13;;;;;;;10.95;4.57;;;;;;;1.55;100.00;96514.53;5087242;28;20486;-61
2023/01/10 05:32:39;;;;;;;8.82;4.25;;;;;;;1.51;100.00;96505.22;5084980;28;20075;-61
2023/01/10 05:35:05;;;;;;;10.30;4.07;;;;;;;1.46;100.00;96512.34;5084212;28;20032;-61
2023/01/10 05:37:30;;;;;;;5.65;3.35;;;;;;;1.42;100.00;96520.25;5083831;28;20075;-61
2023/01/10 05:39:55;;;;;;;9.23;3.42;;;;;;;1.38;100.00;96515.28;5085128;28;20086;-61
2023/01/10 05:42:21;;;;;;;7.80;4.60;;;;;;;1.32;100.00;96515.50;5088752;28;20464;-61
2023/01/10 05:44:46;;;;;;;9.55;4.15;;;;;;;1.27;100.00;96521.75;5088289;28;20454;-63
2023/01/10 05:47:11;;;;;;;11.82;4.10;;;;;;;1.23;100.00;96522.78;5103463;28;20039;-63
2023/01/10 05:49:37;;;;;;;7.85;4.00;;;;;;;1.18;100.00;96521.28;5087524;28;20046;-63
2023/01/10 05:52:03;;;;;;;6.00;3.40;;;;;;;1.13;100.00;96524.09;5088591;28;20161;-63
2023/01/10 05:54:28;;;;;;;6.55;3.55;;;;;;;1.06;100.00;96536.47;5085362;28;20105;-63
2023/01/10 05:56:54;;;;;;;7.75;3.80;;;;;;;1.06;100.00;96541.63;5087493;28;20036;-63
2023/01/10 05:59:19;;;;;;;8.82;4.15;;;;;;;1.06;100.00;96545.97;5088668;28;20032;-63
2023/01/10 06:01:44;;;;;;;11.85;5.72;;;;;;;1.15;100.00;96550.81;5082381;28;20028;-68
2023/01/10 06:04:10;;;;;;;8.95;5.07;;;;;;;1.12;100.00;96556.94;5080004;28;20433;-63
2023/01/10 06:06:35;;;;;;;12.57;5.43;;;;;;;1.27;100.00;96559.81;5083517;28;20498;-64
2023/01/10 06:09:01;;;;;;;15.57;7.95;;;;;;;1.29;100.00;96558.84;5085660;28;20551;-64
2023/01/10 06:11:28;;;;;;;13.18;6.93;;;;;;;1.16;100.00;96562.00;5087599;28;20390;-63
2023/01/10 06:13:55;;;;;;;8.38;5.15;;;;;;;1.05;100.00;96562.44;5083512;28;20529;-63
2023/01/10 06:16:21;;;;;;;10.38;5.10;;;;;;;0.96;100.00;96567.09;5087291;28;20036;-63
2023/01/10 06:18:46;;;;;;;10.00;4.80;;;;;;;0.94;100.00;96562.88;5083719;28;20032;-63
2023/01/10 06:21:12;;;;;;;10.85;4.70;;;;;;;0.90;100.00;96558.72;5087982;28;20036;-61
2023/01/10 06:23:38;;;;;;;10.30;4.80;;;;;;;0.85;100.00;96564.06;5084454;28;20480;-61
2023/01/10 06:26:03;;;;;;;10.18;4.55;;;;;;;0.78;100.00;96567.81;5084399;28;20030;-70
2023/01/10 06:28:29;;;;;;;13.20;5.72;;;;;;;0.73;100.00;96572.34;5087070;28;20490;-70
2023/01/10 06:30:54;;;;;;;12.63;6.00;;;;;;;0.72;100.00;96594.81;5085120;28;20028;-70
2023/01/10 06:33:19;;;;;;;8.02;5.05;;;;;;;0.65;100.00;96588.19;5086008;28;20035;-70
2023/01/10 06:35:47;;;;;;;11.60;5.60;;;;;;;0.59;100.00;96588.44;5084574;28;20139;-70
2023/01/10 06:38:13;;;;;;;7.35;4.78;;;;;;;0.56;100.00;96595.44;5083331;28;20557;-70
2023/01/10 06:40:38;;;;;;;6.57;4.95;;;;;;;0.54;100.00;96602.38;5086172;28;20574;-63
2023/01/10 06:43:04;;;;;;;10.52;5.43;;;;;;;0.50;100.00;96611.19;5083016;28;20115;-63
2023/01/10 06:45:29;;;;;;;5.72;5.03;;;;;;;0.42;100.00;96606.28;5088481;28;20032;-70
2023/01/10 06:47:55;;;;;;;7.35;5.35;;;;;;;0.36;100.00;96613.47;5084713;28;20032;-72
2023/01/10 06:50:20;;;;;;;8.70;4.68;;;;;;;0.27;100.00;96609.47;5086646;28;20035;-71
2023/01/10 06:52:45;;;;;;;7.90;3.95;;;;;;;0.20;100.00;96602.78;5090790;28;20060;-69
2023/01/10 06:55:11;;;;;;;11.90;4.85;;;;;;;0.14;100.00;96607.31;5088571;28;20697;-69
2023/01/10 06:57:37;;;;;;;9.00;5.90;;;;;;;0.18;100.00;96610.63;5080997;28;20023;-69
2023/01/10 07:00:08;;;;;;;9.55;6.97;;;;;;;0.20;100.00;96611.44;5084653;28;20038;-67
2023/01/10 07:02:33;;;;;;;8.75;6.47;;;;;;;0.08;100.00;96611.84;5078185;28;20044;-66
2023/01/10 07:04:58;;;;;;;11.65;9.05;;;;;;;-0.04;100.00;96614.00;5082082;28;20421;-70
2023/01/10 07:07:24;;;;;;;8.52;6.80;;;;;;;-0.08;100.00;96598.63;5080452;28;20036;-65
2023/01/10 07:09:49;;;;;;;13.10;6.00;;;;;;;-0.09;100.00;96602.09;5082881;28;20028;-66
2023/01/10 07:12:15;;;;;;;26.58;20.30;;;;;;;-0.09;100.00;96600.38;5085149;28;20032;-69
2023/01/10 07:14:40;;;;;;;21.52;15.23;;;;;;;-0.10;100.00;96605.59;5079500;28;20094;-66
2023/01/10 07:17:05;;;;;;;18.77;14.95;;;;;;;-0.17;100.00;96598.03;5085395;28;20524;-69
2023/01/10 07:19:31;;;;;;;28.20;18.60;;;;;;;-0.22;100.00;96596.50;5068415;28;20052;-64
2023/01/10 07:21:57;;;;;;;16.55;12.65;;;;;;;-0.26;100.00;96597.53;5087433;28;20132;-64
2023/01/10 07:24:22;;;;;;;13.18;10.73;;;;;;;-0.28;100.00;96594.97;5087711;28;20034;-63
2023/01/10 07:26:47;;;;;;;13.85;10.02;;;;;;;-0.27;100.00;96590.66;5086743;28;20043;-64
2023/01/10 07:29:13;;;;;;;18.15;10.65;;;;;;;-0.30;100.00;96584.69;5087710;28;20035;-65
2023/01/10 07:31:38;;;;;;;10.55;8.90;;;;;;;-0.36;100.00;96591.81;5086664;28;20025;-64
2023/01/10 07:34:03;;;;;;;13.02;8.95;;;;;;;-0.40;100.00;96593.66;5085795;28;20020;-65
2023/01/10 07:36:29;;;;;;;13.25;8.60;;;;;;;-0.42;100.00;96592.88;5084924;28;20152;-64
2023/01/10 07:38:54;;;;;;;13.32;8.13;;;;;;;-0.47;100.00;96587.00;5087145;28;20020;-65
2023/01/10 07:41:19;;;;;;;13.57;8.07;;;;;;;-0.46;100.00;96589.53;5087382;28;20054;-63
2023/01/10 07:43:45;;;;;;;14.35;8.20;;;;;;;-0.46;100.00;96586.09;5085768;28;20123;-68
2023/01/10 07:46:11;;;;;;;22.80;18.98;;;;;;;-0.44;100.00;96587.75;5082869;28;20040;-69
2023/01/10 07:48:37;;;;;;;29.55;24.98;;;;;;;-0.46;100.00;96583.53;5090354;28;20031;-71
2023/01/10 07:51:04;;;;;;;37.05;29.65;;;;;;;-0.49;100.00;96593.97;5087095;28;20028;-68
2023/01/10 07:53:30;;;;;;;33.65;24.85;;;;;;;-0.53;100.00;96593.22;5087102;28;20038;-68
2023/01/10 07:56:00;;;;;;;31.85;22.27;;;;;;;-0.50;100.00;96608.63;5083979;28;20020;-68
2023/01/10 07:58:26;;;;;;;39.55;24.02;;;;;;;-0.47;100.00;96605.94;5086848;28;20484;-65
2023/01/10 08:00:51;;;;;;;28.30;17.90;;;;;;;-0.45;100.00;96616.25;5088015;28;20036;-69
2023/01/10 08:03:16;;;;;;;21.92;15.68;;;;;;;-0.46;100.00;96622.31;5087398;28;20028;-69
2023/01/10 08:05:42;;;;;;;24.30;16.52;;;;;;;-0.50;100.00;96620.75;5084249;28;20031;-70
2023/01/10 08:08:10;;;;;;;19.23;14.68;;;;;;;-0.50;100.00;96626.75;5088652;28;20032;-66
2023/01/10 08:10:36;;;;;;;15.35;12.25;;;;;;;-0.55;100.00;96625.19;5089791;28;20878;-70
2023/01/10 08:13:02;;;;;;;16.48;11.07;;;;;;;-0.56;100.00;96639.03;5088385;28;20040;-70
2023/01/10 08:15:27;;;;;;;14.95;10.75;;;;;;;-0.58;100.00;96642.53;5087063;28;20038;-70
2023/01/10 08:17:53;;;;;;;16.38;10.57;;;;;;;-0.57;100.00;96640.78;5084668;28;20024;-72
2023/01/10 08:20:18;;;;;;;30.35;17.48;;;;;;;-0.53;100.00;96637.19;5086091;28;20051;-70
2023/01/10 08:22:43;;;;;;;68.28;37.80;;;;;;;-0.48;100.00;96647.41;5084988;28;20028;-70
2023/01/10 08:25:09;;;;;;;66.35;38.78;;;;;;;-0.46;100.00;96641.28;5086271;28;20024;-70
2023/01/10 08:27:35;;;;;;;43.25;25.95;;;;;;;-0.54;100.00;96638.09;5087008;28;20547;-70
2023/01/10 08:30:00;;;;;;;36.53;23.23;;;;;;;-0.53;100.00;96644.13;5085690;28;20051;-70
2023/01/10 08:32:26;;;;;;;32.92;20.02;;;;;;;-0.53;100.00;96633.78;5078373;28;20038;-70
2023/01/10 08:34:51;;;;;;;31.50;18.42;;;;;;;-0.58;100.00;96636.50;5088788;28;20128;-70
2023/01/10 08:37:16;;;;;;;28.73;16.63;;;;;;;-0.47;100.00;96642.16;5088737;28;20431;-64
2023/01/10 08:39:42;;;;;;;22.55;14.05;;;;;;;-0.50;100.00;96642.28;5084382;28;20072;-62
2023/01/10 08:42:07;;;;;;;26.42;16.48;;;;;;;-0.44;100.00;96643.81;5086634;28;20039;-63
2023/01/10 08:44:32;;;;;;;37.25;22.05;;;;;;;-0.45;100.00;96645.53;5085643;28;20032;-62
2023/01/10 08:46:58;;;;;;;39.70;23.50;;;;;;;-0.42;100.00;96647.19;5089278;28;20040;-62
2023/01/10 08:49:23;;;;;;;21.95;10.07;;;;;;;-0.37;100.00;96636.69;5089202;28;20036;-61
2023/01/10 08:51:48;;;;;;;10.55;7.22;;;;;;;-0.30;100.00;96641.63;5089200;28;20504;-63
2023/01/10 08:54:14;;;;;;;8.63;6.35;;;;;;;-0.24;100.00;96644.91;5085704;28;20413;-61
2023/01/10 08:56:40;;;;;;;14.93;7.95;;;;;;;-0.19;100.00;96650.75;5088371;28;20047;-67
2023/01/10 08:59:06;;;;;;;16.63;8.07;;;;;;;-0.16;100.00;96641.16;5089274;28;20043;-60
2023/01/10 09:01:31;;;;;;;12.13;7.07;;;;;;;-0.15;100.00;96660.09;5086155;28;20102;-60
2023/01/10 09:03:57;;;;;;;11.77;6.63;;;;;;;-0.09;100.00;96665.09;5086873;28;20077;-60
2023/01/10 09:06:23;;;;;;;12.07;5.55;;;;;;;0.01;100.00;96664.75;5087369;28;20043;-60
2023/01/10 09:08:48;;;;;;;16.77;7.47;;;;;;;-0.01;100.00;96664.81;5087050;28;20473;-60
2023/01/10 09:11:14;;;;;;;9.93;5.63;;;;;;;-0.01;100.00;96670.84;5087595;28;20024;-60
2023/01/10 09:13:39;;;;;;;8.07;5.28;;;;;;;-0.01;100.00;96669.97;5087213;28;20500;-60
2023/01/10 09:16:05;;;;;;;10.82;5.40;;;;;;;-0.03;100.00;96680.41;5091721;28;20510;-66
2023/01/10 09:18:30;;;;;;;10.30;7.20;;;;;;;-0.06;100.00;96684.84;5087032;28;20127;-69
2023/01/10 09:20:56;;;;;;;13.27;8.98;;;;;;;-0.09;100.00;96690.97;5086791;28;20474;-69
2023/01/10 09:23:22;;;;;;;17.63;9.43;;;;;;;-0.11;100.00;96695.38;5088804;28;20028;-69
2023/01/10 09:25:53;;;;;;;19.38;12.75;;;;;;;-0.12;100.00;96701.41;5086174;28;20740;-70
2023/01/10 09:28:19;;;;;;;20.75;13.35;;;;;;;-0.10;100.00;96698.78;5086059;28;20458;-70
2023/01/10 09:30:45;;;;;;;15.90;9.95;;;;;;;0.02;100.00;96702.69;5084975;28;20236;-69
2023/01/10 09:33:11;;;;;;;34.17;24.60;;;;;;;0.11;100.00;96699.78;5088346;28;20043;-70
2023/01/10 09:35:38;;;;;;;18.13;12.07;;;;;;;0.48;100.00;96695.91;5086618;28;20040;-62
2023/01/10 09:38:05;;;;;;;18.55;10.13;;;;;;;0.80;100.00;96704.28;5086484;28;20035;-71
2023/01/10 09:41:06;;;;;;;13.75;6.60;;;;;;;1.32;100.00;96708.38;5086702;28;20028;-72
2023/01/10 09:43:53;;;;;;;11.18;5.88;;;;;;;1.78;100.00;96708.28;5071088;28;20043;-70
2023/01/10 09:46:30;;;;;;;11.02;4.60;;;;;;;2.15;100.00;96718.91;5085661;28;20024;-72
2023/01/10 09:49:05;;;;;;;8.23;4.97;;;;;;;2.42;100.00;96719.47;5084786;28;20055;-71
2023/01/10 09:51:39;;;;;;;;;;;;;;;2.79;100.00;96723.97;5083812;28;20469;-70
2023/01/10 09:54:12;;;;;;;7.72;6.57;;;;;;;2.96;100.00;96724.06;5083653;28;19912;-69
2023/01/10 09:56:39;;;;;;;12.20;10.93;;;;;;;3.08;100.00;96717.44;5088246;28;20366;-68
2023/01/10 09:59:05;;;;;;;10.50;8.07;;;;;;;3.19;100.00;96724.75;5087718;28;20432;-68
2023/01/10 10:01:37;;;;;;;5.45;3.90;;;;;;;3.24;100.00;96725.38;5079317;28;20036;-68
2023/01/10 10:04:24;;;;;;;4.88;3.28;;;;;;;3.13;100.00;96720.69;5086712;28;20038;-68
2023/01/10 10:06:51;;;;;;;4.40;2.58;;;;;;;3.11;100.00;96719.09;5086027;28;20035;-68
2023/01/10 10:09:28;;;;;;;7.95;4.25;;;;;;;3.23;100.00;96722.88;5080397;28;20028;-68
2023/01/10 10:11:53;;;;;;;6.80;3.33;;;;;;;3.36;100.00;96721.38;5086778;28;20111;-67
2023/01/10 10:14:34;;;;;;;7.50;5.03;;;;;;;3.49;100.00;96720.81;5087123;28;20118;-67
2023/01/10 10:17:11;;;;;;;7.95;5.88;;;;;;;3.52;100.00;96718.06;5085417;28;20040;-62
2023/01/10 10:19:58;;;;;;;8.98;4.68;;;;;;;3.65;100.00;96698.31;5083725;28;20483;-62
2023/01/10 10:22:27;;;;;;;7.93;2.65;;;;;;;3.63;100.00;96699.31;5088284;28;21022;-63
2023/01/10 10:25:13;;;;;;;4.95;2.78;;;;;;;3.64;100.00;96707.03;5089557;28;20036;-64
2023/01/10 10:28:11;;;;;;;5.22;3.17;;;;;;;3.65;100.00;96702.69;5087680;28;20052;-64
2023/01/10 10:30:36;;;;;;;6.50;3.08;;;;;;;3.72;100.00;96689.28;5086222;28;20016;-64
2023/01/10 10:33:15;;;;;;;7.57;2.95;;;;;;;3.88;100.00;96693.75;5087492;28;20371;-62
2023/01/10 10:35:48;;;;;;;5.32;2.60;;;;;;;4.11;100.00;96689.97;5089525;28;20536;-63
2023/01/10 10:38:18;;;;;;;7.40;3.58;;;;;;;4.20;100.00;96678.25;5087186;28;20509;-64
2023/01/10 10:40:45;;;;;;;10.00;5.28;;;;;;;4.27;100.00;96678.78;5075800;28;20040;-65
2023/01/10 10:43:20;;;;;;;12.82;5.05;;;;;;;4.25;98.28;96673.63;5085614;28;20028;-64
2023/01/10 10:45:59;;;;;;;10.00;4.72;;;;;;;4.37;98.48;96679.16;5084617;28;20032;-64
2023/01/10 10:48:30;;;;;;;6.63;2.78;;;;;;;4.48;98.34;96673.38;5085630;28;20031;-64
2023/01/10 10:51:16;;;;;;;5.57;2.60;;;;;;;4.57;94.71;96676.34;5085436;28;20062;-64
2023/01/10 10:53:42;;;;;;;6.18;2.38;;;;;;;4.61;95.93;96669.19;5083941;28;20126;-66
2023/01/10 10:56:12;;;;;;;5.63;2.60;;;;;;;4.66;95.83;96666.34;5090910;28;20130;-68
2023/01/10 10:58:42;;;;;;;4.70;2.30;;;;;;;4.74;95.29;96653.72;5092368;28;20070;-68
2023/01/10 11:01:12;;;;;;;6.72;2.63;;;;;;;5.20;95.16;96662.63;5085343;28;20498;-67
2023/01/10 11:03:45;;;;;;;6.63;2.60;;;;;;;5.42;93.41;96657.88;5089813;28;20032;-67
2023/01/10 11:06:14;;;;;;;3.45;2.80;;;;;;;5.70;89.55;96661.53;5085487;28;20048;-68
2023/01/10 11:08:42;;;;;;;5.97;2.80;;;;;;;5.66;89.57;96657.41;5090476;28;20038;-68
2023/01/10 11:11:42;;;;;;;6.95;2.92;;;;;;;5.51;88.25;96655.66;5091405;28;20028;-65
2023/01/10 11:14:08;;;;;;;4.72;2.88;;;;;;;5.54;88.83;96655.50;5086997;28;20033;-65
2023/01/10 11:16:38;;;;;;;4.95;2.33;;;;;;;5.44;90.15;96644.72;5084185;28;20412;-69
2023/01/10 11:19:20;;;;;;;6.40;2.92;;;;;;;5.53;92.37;96639.00;5085357;28;20032;-69
2023/01/10 11:21:56;;;;;;;5.15;3.90;;;;;;;5.57;89.76;96634.41;5091148;28;20063;-69
2023/01/10 11:24:29;;;;;;;;;;;;;;;5.56;88.48;96627.50;5090136;28;20132;-69
2023/01/10 11:26:58;;;;;;;8.35;3.45;;;;;;;5.36;88.63;96616.41;5085551;28;19908;-69
2023/01/10 11:29:25;;;;;;;4.57;2.20;;;;;;;5.43;86.77;96620.38;5087434;28;20391;-69
2023/01/10 11:31:53;;;;;;;3.53;1.95;;;;;;;5.58;87.73;96620.41;5088392;28;20082;-65
2023/01/10 11:34:21;;;;;;;3.25;1.88;;;;;;;5.67;86.22;96609.47;5090184;28;20034;-61
2023/01/10 11:36:55;;;;;;;3.88;2.15;;;;;;;5.85;85.38;96609.28;5091277;28;20140;-61
2023/01/10 11:39:21;;;;;;;4.18;2.28;;;;;;;5.82;86.34;96609.47;5084923;28;20071;-61
2023/01/10 11:41:48;;;;;;;4.85;2.70;;;;;;;6.08;85.76;96609.72;5090666;28;20070;-61